Mountain Lake, MN

7:26 PM CDT on July 23, 2014 (GMT -0500)
Jackson Municipal (KMJQ) Elev 1447 ft | 43.65 °N, 94.99 °W | Change Station

Current weather conditions updated 12 minutes ago

Clear
Clear
77 °F
Feels Like 77 °F
N
7
Wind Variable Wind from NNE

Tomorrow is forecast to be nearly the same temperature as today. Late night thunderstorms tomorrow night.

Today
High -- | Low -- °F
--% Chance of Precip.
Yesterday
High -- | Low -- °F
Precip. -- in
5:58 AM 8:53 PM
Waning Crescent, 8% visible
Pressure 30.21 in
Visibility 10.0 miles
Clouds Clear
Dew Point 52 °F
Humidity 41%
Rainfall 0.00 in
Snow Depth Not available.
UV 1 out of 12
Pollen 5.50 out of 12
Air Quality Not available.
Flu Activity Not available.
METAR KMJQ 240014Z AUTO 02006KT 10SM CLR 25/11 A3021 RMK AO2

More Conditions Fewer Conditions

Pressure 30.21 in
Visibility 10.0 miles
Clouds Clear
Dew Point 52 °F
Humidity 41%
Rainfall 0.00 in
Snow Depth Not available.
UV 1 out of 12
Pollen 5.50 out of 12
Air Quality Not available.
Flu Activity Not available.
METAR KMJQ 240014Z AUTO 02006KT 10SM CLR 25/11 A3021 RMK AO2

More Conditions Fewer Conditions

10-Day Weather Forecast

Almanac

Astronomy

Jul. 23, 2014 Rise Set
Actual Time 5:58 AM CDT 8:53 PM CDT
Civil Twilight 5:24 AM CDT 9:27 PM CDT
Nautical Twilight 4:41 AM CDT 10:10 PM CDT
Astronomical Twilight 3:50 AM CDT 11:00 PM CDT
Moon 3:19 AM CDT (7/23) 6:21 PM CDT (7/23)
Length of Visible Light 16h 02m
Length of Day
14h 54m
Tomorrow will be 1m 59s shorter.
Waning Crescent, 8% of the Moon is Illuminated
Today
Waning Crescent
Jul 26
New
Aug 3
First Quarter
Aug 10
Full
Aug 17
Last Quarter

Today's Extremes

State Highs State Lows

Community

WunderPhotos

Upload Photos

1,736,827 photos uploaded!

Nearby

Snow Depth

Station Depth Elevation
No new snow has been reported.

Earthquake Activity

City Distance Mag. Time & Date
No recent earthquake activity has been reported nearby.
Minimum magnitude displayed is 2.5.

Coastal Water Temperatures

Place Temperature
No Stations Reporting

Nearby Weather Stations

Station Location Temp. Heat Index Dew Point Humidity Wind Precip. Elev Updated Type
Kimball Township, Mountain Lake, MN 75.7 °F 78 °F 58 °F 55% NNW  at  0.0 mph - / hr 1352 ft 7:26 PM CDT Normal
NuWay Coop - Trimont, Trimont, MN 77.3 °F 79 °F 55 °F 46% ENE  at  3.0 mph 0.00 in / hr 1220 ft 7:18 PM CDT Normal
KC0NKL - Elm Creek Township, Sherburn, MN 75.4 °F 78 °F 57 °F 53% NNE  at  4.3 mph 0.00 in / hr 1322 ft 7:26 PM CDT Rapid Fire
Sorenson Seed, Storden, MN 75.7 °F 78 °F 56 °F 50% NE  at  4.0 mph 0.00 in / hr 1404 ft 7:25 PM CDT Normal
Ryan Farms, Springfield, MN 80.9 °F 82 °F 61 °F 51% SSW  at  0.0 mph 0.00 in / hr 1076 ft 7:26 PM CDT Normal
Sleepy Eye Airport, Sleepy Eye, MN 78.5 °F 80 °F 58 °F 50% NNW  at  5.0 mph 0.00 in / hr 994 ft 7:26 PM CDT Rapid Fire
NuWay Coop - Welcome, Welcome, MN 76.9 °F 79 °F 58 °F 53% North  at  5.0 mph 0.00 in / hr 1224 ft 7:14 PM CDT Normal

Show More Stations Show Fewer Stations